sensor_id;sensor_type;location;lat;lon;timestamp;pressure;altitude;pressure_sealevel;temperature;humidity
66703;BME280;60933;46.398;-63.798;2023-04-22T00:01:36;102359.88;;;0.08;86.29
66703;BME280;60933;46.398;-63.798;2023-04-22T00:04:02;102354.94;;;0.11;86.58
66703;BME280;60933;46.398;-63.798;2023-04-22T00:06:28;102358.00;;;0.04;86.26
66703;BME280;60933;46.398;-63.798;2023-04-22T00:08:56;102353.59;;;0.00;86.06
66703;BME280;60933;46.398;-63.798;2023-04-22T00:11:22;102367.09;;;-0.01;87.10
66703;BME280;60933;46.398;-63.798;2023-04-22T00:13:48;102359.53;;;0.01;87.20
66703;BME280;60933;46.398;-63.798;2023-04-22T00:16:14;102362.06;;;0.01;87.81
66703;BME280;60933;46.398;-63.798;2023-04-22T00:18:40;102373.97;;;0.02;87.73
66703;BME280;60933;46.398;-63.798;2023-04-22T00:21:07;102371.22;;;-0.03;88.00
66703;BME280;60933;46.398;-63.798;2023-04-22T00:23:33;102384.78;;;-0.03;88.42
66703;BME280;60933;46.398;-63.798;2023-04-22T00:26:02;102384.06;;;0.00;88.39
66703;BME280;60933;46.398;-63.798;2023-04-22T00:28:28;102390.06;;;0.02;88.96
66703;BME280;60933;46.398;-63.798;2023-04-22T00:30:54;102389.06;;;-0.02;88.81
66703;BME280;60933;46.398;-63.798;2023-04-22T00:33:22;102388.50;;;-0.14;88.27
66703;BME280;60933;46.398;-63.798;2023-04-22T00:35:48;102390.78;;;-0.20;87.66
66703;BME280;60933;46.398;-63.798;2023-04-22T00:38:14;102397.38;;;-0.24;87.67
66703;BME280;60933;46.398;-63.798;2023-04-22T00:40:40;102388.09;;;-0.23;88.16
66703;BME280;60933;46.398;-63.798;2023-04-22T00:43:08;102391.34;;;-0.26;87.99
66703;BME280;60933;46.398;-63.798;2023-04-22T00:45:36;102393.09;;;-0.25;88.47
66703;BME280;60933;46.398;-63.798;2023-04-22T00:48:02;102396.56;;;-0.23;88.60
66703;BME280;60933;46.398;-63.798;2023-04-22T00:50:28;102400.84;;;-0.22;88.61
66703;BME280;60933;46.398;-63.798;2023-04-22T00:52:54;102409.34;;;-0.21;89.06
66703;BME280;60933;46.398;-63.798;2023-04-22T00:55:20;102415.78;;;-0.28;88.64
66703;BME280;60933;46.398;-63.798;2023-04-22T00:57:48;102414.66;;;-0.35;88.62
66703;BME280;60933;46.398;-63.798;2023-04-22T01:00:16;102403.03;;;-0.47;88.80
66703;BME280;60933;46.398;-63.798;2023-04-22T01:02:45;102410.78;;;-0.44;88.92
66703;BME280;60933;46.398;-63.798;2023-04-22T01:05:11;102414.22;;;-0.44;89.15
66703;BME280;60933;46.398;-63.798;2023-04-22T01:07:38;102418.38;;;-0.44;88.80
66703;BME280;60933;46.398;-63.798;2023-04-22T01:10:05;102421.72;;;-0.45;89.31
66703;BME280;60933;46.398;-63.798;2023-04-22T01:12:31;102442.03;;;-0.45;89.56
66703;BME280;60933;46.398;-63.798;2023-04-22T01:14:57;102438.63;;;-0.46;89.74
66703;BME280;60933;46.398;-63.798;2023-04-22T01:17:23;102438.56;;;-0.47;90.12
66703;BME280;60933;46.398;-63.798;2023-04-22T01:19:50;102435.06;;;-0.50;89.50
66703;BME280;60933;46.398;-63.798;2023-04-22T01:22:18;102443.63;;;-0.47;90.17
66703;BME280;60933;46.398;-63.798;2023-04-22T01:24:44;102435.06;;;-0.50;89.63
66703;BME280;60933;46.398;-63.798;2023-04-22T01:27:11;102442.53;;;-0.53;89.57
66703;BME280;60933;46.398;-63.798;2023-04-22T01:29:37;102449.22;;;-0.55;89.44
66703;BME280;60933;46.398;-63.798;2023-04-22T01:32:04;102455.94;;;-0.55;90.10
66703;BME280;60933;46.398;-63.798;2023-04-22T01:34:31;102452.53;;;-0.56;90.07
66703;BME280;60933;46.398;-63.798;2023-04-22T01:36:57;102446.75;;;-0.53;89.95
66703;BME280;60933;46.398;-63.798;2023-04-22T01:39:24;102436.66;;;-0.52;90.04
66703;BME280;60933;46.398;-63.798;2023-04-22T01:41:50;102439.19;;;-0.52;89.99
66703;BME280;60933;46.398;-63.798;2023-04-22T01:44:16;102429.03;;;-0.52;90.48
66703;BME280;60933;46.398;-63.798;2023-04-22T01:46:44;102422.72;;;-0.60;90.22
66703;BME280;60933;46.398;-63.798;2023-04-22T01:49:10;102418.94;;;-0.68;90.24
66703;BME280;60933;46.398;-63.798;2023-04-22T01:51:36;102414.53;;;-0.72;90.29
66703;BME280;60933;46.398;-63.798;2023-04-22T01:54:03;102425.72;;;-0.69;90.00
66703;BME280;60933;46.398;-63.798;2023-04-22T01:56:29;102437.66;;;-0.66;90.39
66703;BME280;60933;46.398;-63.798;2023-04-22T01:58:55;102422.44;;;-0.66;90.51
66703;BME280;60933;46.398;-63.798;2023-04-22T02:01:21;102417.53;;;-0.63;90.68
66703;BME280;60933;46.398;-63.798;2023-04-22T02:03:47;102415.06;;;-0.61;90.79
66703;BME280;60933;46.398;-63.798;2023-04-22T02:06:14;102422.66;;;-0.61;90.52
66703;BME280;60933;46.398;-63.798;2023-04-22T02:08:40;102406.59;;;-0.62;91.08
66703;BME280;60933;46.398;-63.798;2023-04-22T02:11:06;102410.16;;;-0.58;91.11
66703;BME280;60933;46.398;-63.798;2023-04-22T02:13:36;102405.94;;;-0.58;90.86
66703;BME280;60933;46.398;-63.798;2023-04-22T02:16:03;102406.00;;;-0.56;90.69
66703;BME280;60933;46.398;-63.798;2023-04-22T02:18:30;102404.34;;;-0.56;91.31
66703;BME280;60933;46.398;-63.798;2023-04-22T02:20:56;102389.91;;;-0.57;90.86
66703;BME280;60933;46.398;-63.798;2023-04-22T02:23:22;102395.94;;;-0.55;91.39
66703;BME280;60933;46.398;-63.798;2023-04-22T02:25:50;102380.72;;;-0.55;91.38
66703;BME280;60933;46.398;-63.798;2023-04-22T02:28:17;102382.53;;;-0.52;91.20
66703;BME280;60933;46.398;-63.798;2023-04-22T02:30:44;102381.63;;;-0.53;91.78
66703;BME280;60933;46.398;-63.798;2023-04-22T02:33:10;102370.56;;;-0.55;91.90
66703;BME280;60933;46.398;-63.798;2023-04-22T02:35:37;102373.09;;;-0.55;91.94
66703;BME280;60933;46.398;-63.798;2023-04-22T02:38:03;102371.44;;;-0.54;91.94
66703;BME280;60933;46.398;-63.798;2023-04-22T02:40:29;102359.63;;;-0.54;91.52
66703;BME280;60933;46.398;-63.798;2023-04-22T02:42:55;102360.41;;;-0.55;91.74
66703;BME280;60933;46.398;-63.798;2023-04-22T02:45:21;102358.69;;;-0.56;91.60
66703;BME280;60933;46.398;-63.798;2023-04-22T02:47:47;102377.28;;;-0.55;92.18
66703;BME280;60933;46.398;-63.798;2023-04-22T02:50:13;102374.53;;;-0.60;91.52
66703;BME280;60933;46.398;-63.798;2023-04-22T02:52:40;102386.19;;;-0.64;91.83
66703;BME280;60933;46.398;-63.798;2023-04-22T02:55:06;102399.84;;;-0.61;91.56
66703;BME280;60933;46.398;-63.798;2023-04-22T02:57:33;102400.00;;;-0.58;92.60
66703;BME280;60933;46.398;-63.798;2023-04-22T02:59:59;102410.84;;;-0.61;91.95
66703;BME280;60933;46.398;-63.798;2023-04-22T03:02:25;102401.34;;;-0.65;92.02
66703;BME280;60933;46.398;-63.798;2023-04-22T03:04:51;102407.44;;;-0.61;92.43
66703;BME280;60933;46.398;-63.798;2023-04-22T03:07:19;102386.66;;;-0.72;91.64
66703;BME280;60933;46.398;-63.798;2023-04-22T03:09:45;102407.22;;;-0.66;92.17
66703;BME280;60933;46.398;-63.798;2023-04-22T03:12:10;102423.41;;;-0.64;92.07
66703;BME280;60933;46.398;-63.798;2023-04-22T03:14:36;102424.19;;;-0.65;92.13
66703;BME280;60933;46.398;-63.798;2023-04-22T03:17:02;102431.84;;;-0.64;92.12
66703;BME280;60933;46.398;-63.798;2023-04-22T03:19:28;102438.31;;;-0.70;91.66
66703;BME280;60933;46.398;-63.798;2023-04-22T03:21:54;102418.13;;;-0.85;91.72
66703;BME280;60933;46.398;-63.798;2023-04-22T03:24:22;102438.72;;;-0.79;91.43
66703;BME280;60933;46.398;-63.798;2023-04-22T03:26:48;102444.44;;;-0.83;91.57
66703;BME280;60933;46.398;-63.798;2023-04-22T03:29:14;102441.13;;;-0.82;91.57
66703;BME280;60933;46.398;-63.798;2023-04-22T03:31:40;102444.50;;;-0.82;91.97
66703;BME280;60933;46.398;-63.798;2023-04-22T03:34:07;102446.31;;;-0.79;91.38
66703;BME280;60933;46.398;-63.798;2023-04-22T03:36:33;102449.75;;;-0.78;91.79
66703;BME280;60933;46.398;-63.798;2023-04-22T03:38:59;102452.41;;;-0.75;91.84
66703;BME280;60933;46.398;-63.798;2023-04-22T03:41:25;102451.72;;;-0.73;91.80
66703;BME280;60933;46.398;-63.798;2023-04-22T03:43:52;102450.03;;;-0.72;91.84
66703;BME280;60933;46.398;-63.798;2023-04-22T03:46:18;102451.00;;;-0.70;92.50
66703;BME280;60933;46.398;-63.798;2023-04-22T03:48:44;102445.94;;;-0.70;92.42
66703;BME280;60933;46.398;-63.798;2023-04-22T03:51:10;102446.84;;;-0.68;92.12
66703;BME280;60933;46.398;-63.798;2023-04-22T03:53:36;102452.03;;;-0.67;92.21
66703;BME280;60933;46.398;-63.798;2023-04-22T03:56:02;102443.53;;;-0.67;92.89
66703;BME280;60933;46.398;-63.798;2023-04-22T03:58:29;102447.50;;;-0.72;92.67
66703;BME280;60933;46.398;-63.798;2023-04-22T04:00:55;102449.97;;;-0.74;92.80
66703;BME280;60933;46.398;-63.798;2023-04-22T04:03:21;102457.09;;;-0.67;92.48
66703;BME280;60933;46.398;-63.798;2023-04-22T04:05:47;102455.34;;;-0.68;92.80
66703;BME280;60933;46.398;-63.798;2023-04-22T04:08:13;102447.88;;;-0.65;92.50
66703;BME280;60933;46.398;-63.798;2023-04-22T04:10:40;102452.16;;;-0.64;93.19
66703;BME280;60933;46.398;-63.798;2023-04-22T04:13:06;102448.75;;;-0.64;92.97
66703;BME280;60933;46.398;-63.798;2023-04-22T04:15:33;102450.28;;;-0.68;93.09
66703;BME280;60933;46.398;-63.798;2023-04-22T04:18:01;102445.94;;;-0.70;92.42
66703;BME280;60933;46.398;-63.798;2023-04-22T04:20:28;102443.38;;;-0.70;93.45
66703;BME280;60933;46.398;-63.798;2023-04-22T04:22:54;102439.09;;;-0.71;92.39
66703;BME280;60933;46.398;-63.798;2023-04-22T04:25:21;102444.31;;;-0.68;93.02
66703;BME280;60933;46.398;-63.798;2023-04-22T04:27:47;102442.59;;;-0.69;93.18
66703;BME280;60933;46.398;-63.798;2023-04-22T04:30:15;102441.47;;;-0.74;92.92
66703;BME280;60933;46.398;-63.798;2023-04-22T04:32:41;102427.94;;;-0.75;92.32
66703;BME280;60933;46.398;-63.798;2023-04-22T04:35:07;102436.56;;;-0.71;92.97
66703;BME280;60933;46.398;-63.798;2023-04-22T04:37:34;102423.72;;;-0.74;92.84
66703;BME280;60933;46.398;-63.798;2023-04-22T04:40:01;102427.38;;;-0.69;92.94
66703;BME280;60933;46.398;-63.798;2023-04-22T04:42:27;102420.56;;;-0.70;92.57
66703;BME280;60933;46.398;-63.798;2023-04-22T04:44:55;102409.69;;;-0.68;92.93
66703;BME280;60933;46.398;-63.798;2023-04-22T04:47:22;102417.38;;;-0.66;92.57
66703;BME280;60933;46.398;-63.798;2023-04-22T04:49:49;102417.25;;;-0.69;92.38
66703;BME280;60933;46.398;-63.798;2023-04-22T04:52:18;102412.84;;;-0.72;92.48
66703;BME280;60933;46.398;-63.798;2023-04-22T04:54:44;102412.84;;;-0.72;92.88
66703;BME280;60933;46.398;-63.798;2023-04-22T04:57:10;102403.31;;;-0.77;92.52
66703;BME280;60933;46.398;-63.798;2023-04-22T04:59:36;102410.03;;;-0.78;92.80
66703;BME280;60933;46.398;-63.798;2023-04-22T05:02:02;102418.66;;;-0.74;92.70
66703;BME280;60933;46.398;-63.798;2023-04-22T05:04:28;102410.25;;;-0.73;93.01
66703;BME280;60933;46.398;-63.798;2023-04-22T05:06:55;102415.34;;;-0.73;92.56
66703;BME280;60933;46.398;-63.798;2023-04-22T05:09:21;102415.56;;;-0.69;92.68
66703;BME280;60933;46.398;-63.798;2023-04-22T05:11:47;102416.41;;;-0.68;93.03
66703;BME280;60933;46.398;-63.798;2023-04-22T05:14:13;102418.16;;;-0.67;92.80
66703;BME280;60933;46.398;-63.798;2023-04-22T05:16:39;102417.38;;;-0.66;93.37
66703;BME280;60933;46.398;-63.798;2023-04-22T05:19:06;102409.03;;;-0.64;92.73
66703;BME280;60933;46.398;-63.798;2023-04-22T05:21:32;102409.25;;;-0.59;93.12
66703;BME280;60933;46.398;-63.798;2023-04-22T05:23:58;102410.28;;;-0.55;92.94
66703;BME280;60933;46.398;-63.798;2023-04-22T05:26:24;102403.31;;;-0.59;93.21
66703;BME280;60933;46.398;-63.798;2023-04-22T05:28:50;102417.97;;;-0.54;93.17
66703;BME280;60933;46.398;-63.798;2023-04-22T05:31:16;102424.47;;;-0.59;92.54
66703;BME280;60933;46.398;-63.798;2023-04-22T05:33:43;102416.94;;;-0.57;93.00
66703;BME280;60933;46.398;-63.798;2023-04-22T05:36:09;102412.75;;;-0.57;92.88
66703;BME280;60933;46.398;-63.798;2023-04-22T05:38:35;102413.38;;;-0.61;92.87
66703;BME280;60933;46.398;-63.798;2023-04-22T05:41:01;102425.38;;;-0.58;92.54
66703;BME280;60933;46.398;-63.798;2023-04-22T05:43:27;102428.69;;;-0.59;92.13
66703;BME280;60933;46.398;-63.798;2023-04-22T05:45:53;102415.13;;;-0.60;92.60
66703;BME280;60933;46.398;-63.798;2023-04-22T05:48:19;102415.13;;;-0.60;92.02
66703;BME280;60933;46.398;-63.798;2023-04-22T05:50:45;102406.72;;;-0.59;92.26
66703;BME280;60933;46.398;-63.798;2023-04-22T05:53:11;102404.97;;;-0.60;92.48
66703;BME280;60933;46.398;-63.798;2023-04-22T05:55:37;102398.97;;;-0.62;92.48
66703;BME280;60933;46.398;-63.798;2023-04-22T05:58:03;102407.28;;;-0.65;91.93
66703;BME280;60933;46.398;-63.798;2023-04-22T06:00:28;102408.81;;;-0.68;92.51
66703;BME280;60933;46.398;-63.798;2023-04-22T06:02:55;102402.72;;;-0.72;91.83
66703;BME280;60933;46.398;-63.798;2023-04-22T06:05:21;102404.16;;;-0.77;92.30
66703;BME280;60933;46.398;-63.798;2023-04-22T06:07:46;102409.41;;;-0.74;92.20
66703;BME280;60933;46.398;-63.798;2023-04-22T06:10:13;102408.69;;;-0.71;92.69
66703;BME280;60933;46.398;-63.798;2023-04-22T06:12:39;102412.16;;;-0.69;91.93
66703;BME280;60933;46.398;-63.798;2023-04-22T06:15:05;102415.63;;;-0.67;92.66
66703;BME280;60933;46.398;-63.798;2023-04-22T06:17:32;102424.13;;;-0.67;92.25
66703;BME280;60933;46.398;-63.798;2023-04-22T06:19:58;102424.97;;;-0.66;92.45
66703;BME280;60933;46.398;-63.798;2023-04-22T06:22:24;102411.34;;;-0.68;92.34
66703;BME280;60933;46.398;-63.798;2023-04-22T06:24:50;102422.59;;;-0.63;92.14
66703;BME280;60933;46.398;-63.798;2023-04-22T06:27:16;102415.06;;;-0.61;92.29
66703;BME280;60933;46.398;-63.798;2023-04-22T06:29:42;102420.97;;;-0.61;92.74
66703;BME280;60933;46.398;-63.798;2023-04-22T06:32:08;102409.13;;;-0.62;92.61
66703;BME280;60933;46.398;-63.798;2023-04-22T06:34:34;102419.41;;;-0.59;92.39
66703;BME280;60933;46.398;-63.798;2023-04-22T06:37:00;102419.47;;;-0.57;92.46
66703;BME280;60933;46.398;-63.798;2023-04-22T06:39:26;102421.94;;;-0.59;92.48
66703;BME280;60933;46.398;-63.798;2023-04-22T06:41:52;102417.81;;;-0.57;92.93
66703;BME280;60933;46.398;-63.798;2023-04-22T06:44:18;102416.81;;;-0.60;92.63
66703;BME280;60933;46.398;-63.798;2023-04-22T06:46:45;102416.75;;;-0.62;92.77
66703;BME280;60933;46.398;-63.798;2023-04-22T06:49:11;102423.41;;;-0.64;93.10
66703;BME280;60933;46.398;-63.798;2023-04-22T06:51:37;102428.31;;;-0.67;92.64
66703;BME280;60933;46.398;-63.798;2023-04-22T06:54:03;102423.09;;;-0.70;92.88
66703;BME280;60933;46.398;-63.798;2023-04-22T06:56:29;102417.56;;;-0.80;93.10
66703;BME280;60933;46.398;-63.798;2023-04-22T06:58:55;102428.66;;;-0.77;93.11
66703;BME280;60933;46.398;-63.798;2023-04-22T07:01:21;102420.03;;;-0.81;93.14
66703;BME280;60933;46.398;-63.798;2023-04-22T07:03:47;102423.28;;;-0.84;93.36
66703;BME280;60933;46.398;-63.798;2023-04-22T07:06:13;102414.34;;;-0.93;93.38
66703;BME280;60933;46.398;-63.798;2023-04-22T07:08:40;102422.84;;;-0.93;92.34
66703;BME280;60933;46.398;-63.798;2023-04-22T07:11:07;102433.47;;;-1.00;92.54
66703;BME280;60933;46.398;-63.798;2023-04-22T07:13:33;102440.13;;;-1.02;92.76
66703;BME280;60933;46.398;-63.798;2023-04-22T07:16:00;102435.78;;;-1.05;93.02
66703;BME280;60933;46.398;-63.798;2023-04-22T07:18:26;102433.97;;;-1.07;93.76
66703;BME280;60933;46.398;-63.798;2023-04-22T07:20:52;102434.81;;;-1.07;93.44
66703;BME280;60933;46.398;-63.798;2023-04-22T07:23:18;102437.97;;;-1.11;92.83
66703;BME280;60933;46.398;-63.798;2023-04-22T07:25:44;102438.69;;;-1.14;93.51
66703;BME280;60933;46.398;-63.798;2023-04-22T07:28:10;102442.03;;;-1.15;93.45
66703;BME280;60933;46.398;-63.798;2023-04-22T07:30:37;102437.53;;;-1.20;93.86
66703;BME280;60933;46.398;-63.798;2023-04-22T07:33:03;102436.50;;;-1.24;93.46
66703;BME280;60933;46.398;-63.798;2023-04-22T07:35:29;102440.69;;;-1.24;93.62
66703;BME280;60933;46.398;-63.798;2023-04-22T07:37:56;102446.78;;;-1.21;93.57
66703;BME280;60933;46.398;-63.798;2023-04-22T07:40:22;102444.13;;;-1.24;93.78
66703;BME280;60933;46.398;-63.798;2023-04-22T07:42:48;102446.47;;;-1.27;93.90
66703;BME280;60933;46.398;-63.798;2023-04-22T07:45:14;102432.78;;;-1.31;94.07
66703;BME280;60933;46.398;-63.798;2023-04-22T07:47:41;102434.69;;;-1.26;93.90
66703;BME280;60933;46.398;-63.798;2023-04-22T07:50:07;102431.56;;;-1.21;93.79
66703;BME280;60933;46.398;-63.798;2023-04-22T07:52:33;102441.88;;;-1.18;93.96
66703;BME280;60933;46.398;-63.798;2023-04-22T07:54:59;102447.09;;;-1.15;93.99
66703;BME280;60933;46.398;-63.798;2023-04-22T07:57:25;102436.09;;;-1.15;94.31
66703;BME280;60933;46.398;-63.798;2023-04-22T07:59:52;102444.66;;;-1.13;93.74
66703;BME280;60933;46.398;-63.798;2023-04-22T08:02:18;102442.91;;;-1.14;94.42
66703;BME280;60933;46.398;-63.798;2023-04-22T08:04:44;102448.03;;;-1.13;94.70
66703;BME280;60933;46.398;-63.798;2023-04-22T08:07:10;102445.44;;;-1.14;94.34
66703;BME280;60933;46.398;-63.798;2023-04-22T08:09:36;102447.31;;;-1.10;94.66
66703;BME280;60933;46.398;-63.798;2023-04-22T08:12:02;102446.63;;;-1.07;94.31
66703;BME280;60933;46.398;-63.798;2023-04-22T08:14:29;102442.50;;;-1.05;94.25
66703;BME280;60933;46.398;-63.798;2023-04-22T08:16:55;102445.97;;;-1.03;94.30
66703;BME280;60933;46.398;-63.798;2023-04-22T08:19:21;102445.25;;;-1.01;94.38
66703;BME280;60933;46.398;-63.798;2023-04-22T08:21:47;102438.69;;;-0.97;94.38
66703;BME280;60933;46.398;-63.798;2023-04-22T08:24:13;102434.41;;;-0.98;94.79
66703;BME280;60933;46.398;-63.798;2023-04-22T08:26:39;102443.63;;;-1.00;94.79
66703;BME280;60933;46.398;-63.798;2023-04-22T08:29:06;102448.81;;;-0.97;95.02
66703;BME280;60933;46.398;-63.798;2023-04-22T08:31:33;102459.03;;;-0.96;94.78
66703;BME280;60933;46.398;-63.798;2023-04-22T08:33:59;102470.28;;;-0.90;94.76
66703;BME280;60933;46.398;-63.798;2023-04-22T08:36:26;102451.75;;;-0.89;94.80
66703;BME280;60933;46.398;-63.798;2023-04-22T08:38:52;102448.44;;;-0.88;95.15
66703;BME280;60933;46.398;-63.798;2023-04-22T08:41:21;102440.88;;;-0.87;94.52
66703;BME280;60933;46.398;-63.798;2023-04-22T08:43:49;102428.94;;;-0.89;94.94
66703;BME280;60933;46.398;-63.798;2023-04-22T08:46:17;102434.13;;;-0.86;94.71
66703;BME280;60933;46.398;-63.798;2023-04-22T08:48:47;102435.88;;;-0.85;95.40
66703;BME280;60933;46.398;-63.798;2023-04-22T08:51:15;102429.97;;;-0.86;94.99
66703;BME280;60933;46.398;-63.798;2023-04-22T08:53:45;102431.78;;;-0.83;94.63
66703;BME280;60933;46.398;-63.798;2023-04-22T08:56:12;102431.84;;;-0.82;94.68
66703;BME280;60933;46.398;-63.798;2023-04-22T08:58:41;102428.34;;;-0.84;94.79
66703;BME280;60933;46.398;-63.798;2023-04-22T09:01:08;102430.97;;;-0.82;95.07
66703;BME280;60933;46.398;-63.798;2023-04-22T09:03:35;102439.50;;;-0.80;94.66
66703;BME280;60933;46.398;-63.798;2023-04-22T09:06:05;102438.59;;;-0.82;95.10
66703;BME280;60933;46.398;-63.798;2023-04-22T09:08:31;102446.41;;;-0.77;94.87
66703;BME280;60933;46.398;-63.798;2023-04-22T09:11:02;102444.75;;;-0.77;95.15
66703;BME280;60933;46.398;-63.798;2023-04-22T09:13:28;102437.13;;;-0.77;94.71
66703;BME280;60933;46.398;-63.798;2023-04-22T09:15:55;102424.88;;;-0.86;94.94
66703;BME280;60933;46.398;-63.798;2023-04-22T09:18:21;102448.78;;;-0.81;95.10
66703;BME280;60933;46.398;-63.798;2023-04-22T09:20:47;102442.78;;;-0.83;94.78
66703;BME280;60933;46.398;-63.798;2023-04-22T09:23:14;102443.56;;;-0.84;94.88
66703;BME280;60933;46.398;-63.798;2023-04-22T09:25:40;102447.84;;;-0.83;94.55
66703;BME280;60933;46.398;-63.798;2023-04-22T09:28:11;102441.75;;;-0.86;94.27
66703;BME280;60933;46.398;-63.798;2023-04-22T09:30:38;102450.47;;;-0.81;94.62
66703;BME280;60933;46.398;-63.798;2023-04-22T09:33:04;102453.00;;;-0.81;94.64
66703;BME280;60933;46.398;-63.798;2023-04-22T09:35:32;102450.53;;;-0.80;94.78
66703;BME280;60933;46.398;-63.798;2023-04-22T09:38:00;102449.59;;;-0.82;94.41
66703;BME280;60933;46.398;-63.798;2023-04-22T09:40:28;102449.75;;;-0.78;94.67
66703;BME280;60933;46.398;-63.798;2023-04-22T09:42:56;102449.97;;;-0.74;94.56
66703;BME280;60933;46.398;-63.798;2023-04-22T09:45:33;102446.41;;;-0.77;94.62
66703;BME280;60933;46.398;-63.798;2023-04-22T09:48:11;102458.28;;;-0.76;94.70
66703;BME280;60933;46.398;-63.798;2023-04-22T09:50:39;102467.63;;;-0.75;94.21
66703;BME280;60933;46.398;-63.798;2023-04-22T09:53:09;102472.72;;;-0.75;94.50
66703;BME280;60933;46.398;-63.798;2023-04-22T09:55:41;102476.13;;;-0.75;94.20
66703;BME280;60933;46.398;-63.798;2023-04-22T09:58:16;102467.97;;;-0.69;94.34
66703;BME280;60933;46.398;-63.798;2023-04-22T10:00:49;102456.13;;;-0.69;94.55
66703;BME280;60933;46.398;-63.798;2023-04-22T10:03:16;102463.25;;;-0.61;93.86
66703;BME280;60933;46.398;-63.798;2023-04-22T10:05:43;102459.84;;;-0.62;93.93
66703;BME280;60933;46.398;-63.798;2023-04-22T10:08:12;102459.84;;;-0.62;94.13
66703;BME280;60933;46.398;-63.798;2023-04-22T10:10:39;102477.91;;;-0.56;93.93
66703;BME280;60933;46.398;-63.798;2023-04-22T10:13:06;102478.03;;;-0.53;94.24
66703;BME280;60933;46.398;-63.798;2023-04-22T10:15:39;102479.88;;;-0.50;93.98
66703;BME280;60933;46.398;-63.798;2023-04-22T10:18:09;102481.91;;;-0.43;93.74
66703;BME280;60933;46.398;-63.798;2023-04-22T10:20:39;102487.84;;;-0.42;93.86
66703;BME280;60933;46.398;-63.798;2023-04-22T10:23:16;102494.59;;;-0.43;93.59
66703;BME280;60933;46.398;-63.798;2023-04-22T10:25:55;102489.72;;;-0.38;93.63
66703;BME280;60933;46.398;-63.798;2023-04-22T10:28:23;102494.97;;;-0.35;93.58
66703;BME280;60933;46.398;-63.798;2023-04-22T10:30:49;102491.78;;;-0.31;93.59
66703;BME280;60933;46.398;-63.798;2023-04-22T10:36:18;102496.50;;;-0.21;93.34
66703;BME280;60933;46.398;-63.798;2023-04-22T10:41:30;102504.03;;;-0.04;93.64
66703;BME280;60933;46.398;-63.798;2023-04-22T10:43:59;102507.44;;;-0.04;93.95
66703;BME280;60933;46.398;-63.798;2023-04-22T10:49:16;102518.94;;;0.06;93.66
66703;BME280;60933;46.398;-63.798;2023-04-22T10:51:47;102514.63;;;0.23;93.46
66703;BME280;60933;46.398;-63.798;2023-04-22T10:57:08;102528.78;;;0.56;93.25
66703;BME280;60933;46.398;-63.798;2023-04-22T10:59:47;102534.03;;;0.78;93.03
66703;BME280;60933;46.398;-63.798;2023-04-22T11:02:15;102529.50;;;0.91;93.17
66703;BME280;60933;46.398;-63.798;2023-04-22T11:04:41;102529.63;;;0.94;92.62
66703;BME280;60933;46.398;-63.798;2023-04-22T11:17:31;102541.00;;;1.22;90.30
66703;BME280;60933;46.398;-63.798;2023-04-22T11:19:58;102539.84;;;1.35;90.20
66703;BME280;60933;46.398;-63.798;2023-04-22T11:22:25;102550.75;;;1.52;90.56
66703;BME280;60933;46.398;-63.798;2023-04-22T11:24:57;102552.38;;;1.71;90.12
66703;BME280;60933;46.398;-63.798;2023-04-22T11:27:24;102552.81;;;1.82;90.02
66703;BME280;60933;46.398;-63.798;2023-04-22T11:30:09;102555.53;;;1.86;88.65
66703;BME280;60933;46.398;-63.798;2023-04-22T11:32:40;102551.34;;;1.88;87.07
66703;BME280;60933;46.398;-63.798;2023-04-22T11:35:09;102543.91;;;1.93;85.83
66703;BME280;60933;46.398;-63.798;2023-04-22T11:37:40;102547.75;;;2.04;85.23
66703;BME280;60933;46.398;-63.798;2023-04-22T11:40:09;102547.16;;;2.10;83.73
66703;BME280;60933;46.398;-63.798;2023-04-22T11:42:36;102555.13;;;2.19;82.59
66703;BME280;60933;46.398;-63.798;2023-04-22T11:45:03;102553.56;;;2.23;81.83
66703;BME280;60933;46.398;-63.798;2023-04-22T11:47:30;102556.59;;;2.35;82.31
66703;BME280;60933;46.398;-63.798;2023-04-22T11:49:58;102554.28;;;2.42;81.58
66703;BME280;60933;46.398;-63.798;2023-04-22T11:52:39;102551.38;;;2.55;81.84
66703;BME280;60933;46.398;-63.798;2023-04-22T11:55:10;102555.97;;;2.64;81.66
66703;BME280;60933;46.398;-63.798;2023-04-22T11:57:36;102564.00;;;2.75;81.85
66703;BME280;60933;46.398;-63.798;2023-04-22T12:00:03;102567.59;;;2.80;80.99
66703;BME280;60933;46.398;-63.798;2023-04-22T12:02:29;102572.06;;;2.85;81.03
66703;BME280;60933;46.398;-63.798;2023-04-22T12:04:57;102568.78;;;2.90;80.49
66703;BME280;60933;46.398;-63.798;2023-04-22T12:07:26;102549.03;;;2.84;79.64
66703;BME280;60933;46.398;-63.798;2023-04-22T12:09:55;102563.25;;;3.01;79.72
66703;BME280;60933;46.398;-63.798;2023-04-22T12:12:25;102568.81;;;3.14;80.21
66703;BME280;60933;46.398;-63.798;2023-04-22T12:14:51;102567.50;;;3.25;80.09
66703;BME280;60933;46.398;-63.798;2023-04-22T12:17:26;102575.19;;;3.27;78.76
66703;BME280;60933;46.398;-63.798;2023-04-22T12:19:55;102579.56;;;3.29;79.12
66703;BME280;60933;46.398;-63.798;2023-04-22T12:22:25;102588.56;;;3.44;79.03
66703;BME280;60933;46.398;-63.798;2023-04-22T12:24:52;102588.78;;;3.50;78.21
66703;BME280;60933;46.398;-63.798;2023-04-22T12:27:19;102591.41;;;3.53;77.78
66703;BME280;60933;46.398;-63.798;2023-04-22T12:29:54;102594.84;;;3.54;77.04
66703;BME280;60933;46.398;-63.798;2023-04-22T12:32:22;102608.00;;;3.64;76.75
66703;BME280;60933;46.398;-63.798;2023-04-22T12:34:48;102603.28;;;3.77;76.49
66703;BME280;60933;46.398;-63.798;2023-04-22T12:37:15;102597.41;;;3.79;75.39
66703;BME280;60933;46.398;-63.798;2023-04-22T12:39:43;102596.75;;;3.85;74.41
66703;BME280;60933;46.398;-63.798;2023-04-22T12:42:09;102594.28;;;3.88;73.46
66703;BME280;60933;46.398;-63.798;2023-04-22T12:44:36;102593.56;;;3.92;74.23
66703;BME280;60933;46.398;-63.798;2023-04-22T12:47:02;102593.88;;;4.02;73.97
66703;BME280;60933;46.398;-63.798;2023-04-22T12:49:29;102592.31;;;4.07;72.68
66703;BME280;60933;46.398;-63.798;2023-04-22T12:51:55;102580.47;;;4.09;71.90
66703;BME280;60933;46.398;-63.798;2023-04-22T12:54:21;102580.22;;;4.28;72.24